PROFILE

 METAR AND TAF INFORMATION
ADDS - METARS form results

(1929 UTC 30 October 2020)
http://aviationweather.gov/metar/data/
 
SGAS 301900Z 18015KT 150V220 CAVOK 28/09 Q1017
TAF SGAS 301702Z 3018/3118 20014KT CAVOK TN15/3109Z TX28/3019Z 

 AIRPORT MAP

 RUNWAY INFORMATION
Runway 02 Runway length 11001 ft Runway width 151 ft
Runway elevation 292 ft Runway displaced threshold 0 ft Runway heading 10
Runway 20 Runway length 11001 ft Runway width 151 ft
Runway elevation 249 ft Runway displaced threshold 0 ft Runway heading 190

 AIRPORT FREQUENCIES
Type APP Name ASUNCION A Frequency 119.7 MHZ
Type CTR Name ASUNCION C Frequency 128.4 MHZ
Type GND Name GND Frequency 121.9 MHZ
Type RDO Name ASUNCION R Frequency 126.9 MHZ
Type RDO Name ASUNCION R Frequency 1002.4 MHZ
Type TWR Name ASUNCION T Frequency 118.1 MHZ

 AIRPORT NEAR NAVIGATION AIDS
Type NDB Name Asuncion Frequency 360 KHZ
Type NDB Name Asuncion Frequency 320 KHZ
Type NDB Name Asuncion Frequency 340 KHZ
Type VOR-DME Name Asuncion Frequency 115900 KHZ
Type NDB Name Asuncion Frequency 305 KHZ